sensor_id;sensor_type;location;lat;lon;timestamp;P1;durP1;ratioP1;P2;durP2;ratioP2
62863;SDS011;48954;59.950;11.014;2023-12-22T00:00:06;3.20;;;1.20;;
62863;SDS011;48954;59.950;11.014;2023-12-22T00:02:47;2.00;;;0.80;;
62863;SDS011;48954;59.950;11.014;2023-12-22T00:05:28;1.90;;;0.90;;
62863;SDS011;48954;59.950;11.014;2023-12-22T00:08:08;3.30;;;1.30;;
62863;SDS011;48954;59.950;11.014;2023-12-22T00:10:46;2.00;;;0.70;;
62863;SDS011;48954;59.950;11.014;2023-12-22T00:13:15;3.20;;;1.30;;
62863;SDS011;48954;59.950;11.014;2023-12-22T00:15:56;1.70;;;0.90;;
62863;SDS011;48954;59.950;11.014;2023-12-22T00:18:49;2.70;;;0.90;;
62863;SDS011;48954;59.950;11.014;2023-12-22T00:21:29;2.20;;;1.00;;
62863;SDS011;48954;59.950;11.014;2023-12-22T00:24:09;1.90;;;0.80;;
62863;SDS011;48954;59.950;11.014;2023-12-22T00:26:50;1.50;;;0.60;;
62863;SDS011;48954;59.950;11.014;2023-12-22T00:29:30;1.40;;;0.80;;
62863;SDS011;48954;59.950;11.014;2023-12-22T00:31:58;1.60;;;0.60;;
62863;SDS011;48954;59.950;11.014;2023-12-22T00:34:39;2.60;;;0.80;;
62863;SDS011;48954;59.950;11.014;2023-12-22T00:37:12;2.80;;;1.10;;
62863;SDS011;48954;59.950;11.014;2023-12-22T00:39:53;2.00;;;0.90;;
62863;SDS011;48954;59.950;11.014;2023-12-22T00:42:34;2.30;;;0.90;;
62863;SDS011;48954;59.950;11.014;2023-12-22T00:45:03;2.40;;;1.10;;
62863;SDS011;48954;59.950;11.014;2023-12-22T00:47:57;1.90;;;0.80;;
62863;SDS011;48954;59.950;11.014;2023-12-22T00:50:39;2.60;;;0.90;;
62863;SDS011;48954;59.950;11.014;2023-12-22T00:53:20;3.60;;;0.90;;
62863;SDS011;48954;59.950;11.014;2023-12-22T00:55:51;1.70;;;0.60;;
62863;SDS011;48954;59.950;11.014;2023-12-22T00:58:33;1.40;;;0.70;;
62863;SDS011;48954;59.950;11.014;2023-12-22T01:01:13;2.60;;;1.20;;
62863;SDS011;48954;59.950;11.014;2023-12-22T01:03:44;2.20;;;0.90;;
62863;SDS011;48954;59.950;11.014;2023-12-22T01:06:14;2.30;;;0.60;;
62863;SDS011;48954;59.950;11.014;2023-12-22T01:08:42;1.90;;;0.90;;
62863;SDS011;48954;59.950;11.014;2023-12-22T01:11:11;1.50;;;0.70;;
62863;SDS011;48954;59.950;11.014;2023-12-22T01:13:40;0.70;;;0.40;;
62863;SDS011;48954;59.950;11.014;2023-12-22T01:16:20;1.10;;;0.70;;
62863;SDS011;48954;59.950;11.014;2023-12-22T01:19:02;2.30;;;1.00;;
62863;SDS011;48954;59.950;11.014;2023-12-22T01:21:44;1.70;;;0.70;;
62863;SDS011;48954;59.950;11.014;2023-12-22T01:24:24;1.80;;;0.80;;
62863;SDS011;48954;59.950;11.014;2023-12-22T01:26:58;1.10;;;0.60;;
62863;SDS011;48954;59.950;11.014;2023-12-22T01:29:42;2.20;;;1.00;;
62863;SDS011;48954;59.950;11.014;2023-12-22T01:32:10;1.60;;;0.60;;
62863;SDS011;48954;59.950;11.014;2023-12-22T01:34:51;1.10;;;0.50;;
62863;SDS011;48954;59.950;11.014;2023-12-22T01:37:32;1.20;;;0.50;;
62863;SDS011;48954;59.950;11.014;2023-12-22T01:40:03;1.70;;;0.90;;
62863;SDS011;48954;59.950;11.014;2023-12-22T01:43:03;1.40;;;0.70;;
62863;SDS011;48954;59.950;11.014;2023-12-22T01:45:44;1.60;;;0.40;;
62863;SDS011;48954;59.950;11.014;2023-12-22T01:48:25;0.80;;;0.50;;
62863;SDS011;48954;59.950;11.014;2023-12-22T01:51:07;1.20;;;0.60;;
62863;SDS011;48954;59.950;11.014;2023-12-22T01:53:52;1.10;;;0.50;;
62863;SDS011;48954;59.950;11.014;2023-12-22T01:56:31;1.70;;;0.80;;
62863;SDS011;48954;59.950;11.014;2023-12-22T01:59:08;2.10;;;0.90;;
62863;SDS011;48954;59.950;11.014;2023-12-22T02:01:48;1.00;;;0.40;;
62863;SDS011;48954;59.950;11.014;2023-12-22T02:04:20;1.10;;;0.50;;
62863;SDS011;48954;59.950;11.014;2023-12-22T02:07:01;2.10;;;1.00;;
62863;SDS011;48954;59.950;11.014;2023-12-22T02:09:31;0.60;;;0.40;;
62863;SDS011;48954;59.950;11.014;2023-12-22T02:12:04;1.70;;;0.60;;
62863;SDS011;48954;59.950;11.014;2023-12-22T02:14:55;1.90;;;0.60;;
62863;SDS011;48954;59.950;11.014;2023-12-22T02:20:25;0.90;;;0.40;;
62863;SDS011;48954;59.950;11.014;2023-12-22T02:22:56;2.20;;;0.80;;
62863;SDS011;48954;59.950;11.014;2023-12-22T02:25:36;1.60;;;0.40;;
62863;SDS011;48954;59.950;11.014;2023-12-22T02:28:17;2.30;;;0.70;;
62863;SDS011;48954;59.950;11.014;2023-12-22T02:33:45;1.50;;;0.60;;
62863;SDS011;48954;59.950;11.014;2023-12-22T02:36:21;1.10;;;0.50;;
62863;SDS011;48954;59.950;11.014;2023-12-22T02:39:39;0.80;;;0.30;;
62863;SDS011;48954;59.950;11.014;2023-12-22T02:42:22;1.60;;;0.70;;
62863;SDS011;48954;59.950;11.014;2023-12-22T02:45:12;1.90;;;0.70;;
62863;SDS011;48954;59.950;11.014;2023-12-22T02:47:58;1.30;;;0.50;;
62863;SDS011;48954;59.950;11.014;2023-12-22T02:50:39;1.80;;;0.60;;
62863;SDS011;48954;59.950;11.014;2023-12-22T02:53:24;1.10;;;0.50;;
62863;SDS011;48954;59.950;11.014;2023-12-22T02:56:05;2.60;;;0.80;;
62863;SDS011;48954;59.950;11.014;2023-12-22T02:58:47;1.00;;;0.60;;
62863;SDS011;48954;59.950;11.014;2023-12-22T03:01:29;1.60;;;0.70;;
62863;SDS011;48954;59.950;11.014;2023-12-22T03:04:10;1.20;;;0.60;;
62863;SDS011;48954;59.950;11.014;2023-12-22T03:06:50;3.60;;;1.00;;
62863;SDS011;48954;59.950;11.014;2023-12-22T03:09:31;1.40;;;0.50;;
62863;SDS011;48954;59.950;11.014;2023-12-22T03:12:01;2.00;;;0.80;;
62863;SDS011;48954;59.950;11.014;2023-12-22T03:14:42;1.00;;;0.40;;
62863;SDS011;48954;59.950;11.014;2023-12-22T03:17:13;1.80;;;0.70;;
62863;SDS011;48954;59.950;11.014;2023-12-22T03:19:43;1.20;;;0.50;;
62863;SDS011;48954;59.950;11.014;2023-12-22T03:22:18;1.20;;;0.40;;
62863;SDS011;48954;59.950;11.014;2023-12-22T03:25:02;1.60;;;0.60;;
62863;SDS011;48954;59.950;11.014;2023-12-22T03:27:42;1.60;;;0.60;;
62863;SDS011;48954;59.950;11.014;2023-12-22T03:30:23;0.90;;;0.40;;
62863;SDS011;48954;59.950;11.014;2023-12-22T03:33:04;0.80;;;0.40;;
62863;SDS011;48954;59.950;11.014;2023-12-22T03:36:20;2.40;;;0.60;;
62863;SDS011;48954;59.950;11.014;2023-12-22T03:38:56;0.90;;;0.30;;
62863;SDS011;48954;59.950;11.014;2023-12-22T03:41:39;0.50;;;0.30;;
62863;SDS011;48954;59.950;11.014;2023-12-22T03:44:21;1.00;;;0.40;;
62863;SDS011;48954;59.950;11.014;2023-12-22T03:46:53;1.20;;;0.60;;
62863;SDS011;48954;59.950;11.014;2023-12-22T03:49:41;1.80;;;0.60;;
62863;SDS011;48954;59.950;11.014;2023-12-22T03:52:24;1.00;;;0.70;;
62863;SDS011;48954;59.950;11.014;2023-12-22T03:55:11;1.80;;;0.50;;
62863;SDS011;48954;59.950;11.014;2023-12-22T03:57:53;0.50;;;0.20;;
62863;SDS011;48954;59.950;11.014;2023-12-22T04:00:35;1.10;;;0.40;;
62863;SDS011;48954;59.950;11.014;2023-12-22T04:03:07;0.90;;;0.30;;
62863;SDS011;48954;59.950;11.014;2023-12-22T04:05:34;0.60;;;0.40;;
62863;SDS011;48954;59.950;11.014;2023-12-22T04:08:10;1.40;;;0.60;;
62863;SDS011;48954;59.950;11.014;2023-12-22T04:10:58;1.50;;;0.60;;
62863;SDS011;48954;59.950;11.014;2023-12-22T04:13:36;1.60;;;0.60;;
62863;SDS011;48954;59.950;11.014;2023-12-22T04:16:21;1.90;;;0.80;;
62863;SDS011;48954;59.950;11.014;2023-12-22T04:18:48;2.00;;;1.00;;
62863;SDS011;48954;59.950;11.014;2023-12-22T04:21:29;1.50;;;0.60;;
62863;SDS011;48954;59.950;11.014;2023-12-22T04:24:17;1.70;;;0.60;;
62863;SDS011;48954;59.950;11.014;2023-12-22T04:26:53;1.40;;;0.60;;
62863;SDS011;48954;59.950;11.014;2023-12-22T04:29:34;0.50;;;0.40;;
62863;SDS011;48954;59.950;11.014;2023-12-22T04:32:10;1.20;;;0.60;;
62863;SDS011;48954;59.950;11.014;2023-12-22T04:34:50;1.70;;;0.80;;
62863;SDS011;48954;59.950;11.014;2023-12-22T04:37:17;1.30;;;0.60;;
62863;SDS011;48954;59.950;11.014;2023-12-22T04:39:59;1.50;;;0.70;;
62863;SDS011;48954;59.950;11.014;2023-12-22T04:42:40;0.70;;;0.40;;
62863;SDS011;48954;59.950;11.014;2023-12-22T04:45:24;1.60;;;0.70;;
62863;SDS011;48954;59.950;11.014;2023-12-22T04:48:06;2.30;;;0.90;;
62863;SDS011;48954;59.950;11.014;2023-12-22T04:50:42;1.10;;;0.70;;
62863;SDS011;48954;59.950;11.014;2023-12-22T04:53:27;1.70;;;0.90;;
62863;SDS011;48954;59.950;11.014;2023-12-22T04:55:56;1.20;;;0.60;;
62863;SDS011;48954;59.950;11.014;2023-12-22T04:58:59;0.90;;;0.50;;
62863;SDS011;48954;59.950;11.014;2023-12-22T05:01:32;1.20;;;0.70;;
62863;SDS011;48954;59.950;11.014;2023-12-22T05:04:15;1.30;;;0.50;;
62863;SDS011;48954;59.950;11.014;2023-12-22T05:06:56;1.50;;;0.60;;
62863;SDS011;48954;59.950;11.014;2023-12-22T05:09:25;1.20;;;0.50;;
62863;SDS011;48954;59.950;11.014;2023-12-22T05:12:07;1.60;;;0.50;;
62863;SDS011;48954;59.950;11.014;2023-12-22T05:14:37;1.30;;;0.50;;
62863;SDS011;48954;59.950;11.014;2023-12-22T05:17:20;1.00;;;0.40;;
62863;SDS011;48954;59.950;11.014;2023-12-22T05:19:47;3.00;;;0.80;;
62863;SDS011;48954;59.950;11.014;2023-12-22T05:22:34;2.00;;;0.80;;
62863;SDS011;48954;59.950;11.014;2023-12-22T05:25:08;2.20;;;0.90;;
62863;SDS011;48954;59.950;11.014;2023-12-22T05:28:22;1.60;;;0.60;;
62863;SDS011;48954;59.950;11.014;2023-12-22T05:30:51;1.80;;;0.70;;
62863;SDS011;48954;59.950;11.014;2023-12-22T05:33:25;1.60;;;0.70;;
62863;SDS011;48954;59.950;11.014;2023-12-22T05:35:52;2.20;;;0.80;;
62863;SDS011;48954;59.950;11.014;2023-12-22T05:38:21;3.70;;;1.00;;
62863;SDS011;48954;59.950;11.014;2023-12-22T05:41:02;2.80;;;0.90;;
62863;SDS011;48954;59.950;11.014;2023-12-22T05:43:38;4.20;;;1.10;;
62863;SDS011;48954;59.950;11.014;2023-12-22T05:46:06;5.60;;;1.60;;
62863;SDS011;48954;59.950;11.014;2023-12-22T05:48:33;12.40;;;3.80;;
62863;SDS011;48954;59.950;11.014;2023-12-22T05:51:14;12.80;;;3.10;;
62863;SDS011;48954;59.950;11.014;2023-12-22T05:53:55;10.50;;;3.10;;
62863;SDS011;48954;59.950;11.014;2023-12-22T05:56:37;5.00;;;1.30;;
62863;SDS011;48954;59.950;11.014;2023-12-22T05:59:18;2.50;;;0.90;;
62863;SDS011;48954;59.950;11.014;2023-12-22T06:01:59;2.80;;;1.20;;
62863;SDS011;48954;59.950;11.014;2023-12-22T06:04:27;2.90;;;0.90;;
62863;SDS011;48954;59.950;11.014;2023-12-22T06:07:08;2.50;;;0.80;;
62863;SDS011;48954;59.950;11.014;2023-12-22T06:09:51;2.20;;;1.00;;
62863;SDS011;48954;59.950;11.014;2023-12-22T06:12:24;2.00;;;0.90;;
62863;SDS011;48954;59.950;11.014;2023-12-22T06:15:04;1.50;;;0.80;;
62863;SDS011;48954;59.950;11.014;2023-12-22T06:17:45;1.80;;;0.80;;
62863;SDS011;48954;59.950;11.014;2023-12-22T06:20:28;2.90;;;1.10;;
62863;SDS011;48954;59.950;11.014;2023-12-22T06:23:08;2.60;;;1.10;;
62863;SDS011;48954;59.950;11.014;2023-12-22T06:25:51;2.70;;;1.20;;
62863;SDS011;48954;59.950;11.014;2023-12-22T06:28:47;3.00;;;1.30;;
62863;SDS011;48954;59.950;11.014;2023-12-22T06:31:28;5.00;;;1.50;;
62863;SDS011;48954;59.950;11.014;2023-12-22T06:34:10;4.70;;;1.90;;
62863;SDS011;48954;59.950;11.014;2023-12-22T06:36:48;6.00;;;1.90;;
62863;SDS011;48954;59.950;11.014;2023-12-22T06:39:30;3.20;;;1.30;;
62863;SDS011;48954;59.950;11.014;2023-12-22T06:42:03;3.70;;;1.20;;
62863;SDS011;48954;59.950;11.014;2023-12-22T06:44:45;3.00;;;1.10;;
62863;SDS011;48954;59.950;11.014;2023-12-22T06:47:26;2.10;;;0.90;;
62863;SDS011;48954;59.950;11.014;2023-12-22T06:50:10;3.10;;;1.00;;
62863;SDS011;48954;59.950;11.014;2023-12-22T06:52:50;2.50;;;1.10;;
62863;SDS011;48954;59.950;11.014;2023-12-22T06:58:57;2.90;;;1.20;;
62863;SDS011;48954;59.950;11.014;2023-12-22T07:01:31;3.00;;;1.30;;
62863;SDS011;48954;59.950;11.014;2023-12-22T07:04:15;2.50;;;1.30;;
62863;SDS011;48954;59.950;11.014;2023-12-22T07:06:59;3.20;;;1.30;;
62863;SDS011;48954;59.950;11.014;2023-12-22T07:09:44;2.10;;;1.00;;
62863;SDS011;48954;59.950;11.014;2023-12-22T07:12:27;2.20;;;1.30;;
62863;SDS011;48954;59.950;11.014;2023-12-22T07:15:07;4.40;;;1.30;;
62863;SDS011;48954;59.950;11.014;2023-12-22T07:17:51;2.80;;;1.10;;
62863;SDS011;48954;59.950;11.014;2023-12-22T07:20:31;4.20;;;1.50;;
62863;SDS011;48954;59.950;11.014;2023-12-22T07:23:25;1.20;;;0.70;;
62863;SDS011;48954;59.950;11.014;2023-12-22T07:26:01;2.70;;;1.10;;
62863;SDS011;48954;59.950;11.014;2023-12-22T07:28:44;3.10;;;1.20;;
62863;SDS011;48954;59.950;11.014;2023-12-22T07:31:27;1.50;;;0.60;;
62863;SDS011;48954;59.950;11.014;2023-12-22T07:34:08;2.00;;;0.90;;
62863;SDS011;48954;59.950;11.014;2023-12-22T07:36:49;6.30;;;3.00;;
62863;SDS011;48954;59.950;11.014;2023-12-22T07:39:31;8.50;;;3.20;;
62863;SDS011;48954;59.950;11.014;2023-12-22T07:42:18;9.80;;;4.90;;
62863;SDS011;48954;59.950;11.014;2023-12-22T07:45:01;9.30;;;4.10;;
62863;SDS011;48954;59.950;11.014;2023-12-22T07:47:42;8.30;;;3.70;;
62863;SDS011;48954;59.950;11.014;2023-12-22T07:50:23;10.40;;;4.10;;
62863;SDS011;48954;59.950;11.014;2023-12-22T07:53:06;4.50;;;2.00;;
62863;SDS011;48954;59.950;11.014;2023-12-22T07:55:46;4.00;;;1.60;;
62863;SDS011;48954;59.950;11.014;2023-12-22T07:58:19;2.90;;;0.90;;
62863;SDS011;48954;59.950;11.014;2023-12-22T08:01:15;2.50;;;1.20;;
62863;SDS011;48954;59.950;11.014;2023-12-22T08:03:57;2.90;;;1.00;;
62863;SDS011;48954;59.950;11.014;2023-12-22T08:06:37;2.10;;;0.90;;
62863;SDS011;48954;59.950;11.014;2023-12-22T08:09:19;2.70;;;1.20;;
62863;SDS011;48954;59.950;11.014;2023-12-22T08:11:47;4.00;;;1.40;;
62863;SDS011;48954;59.950;11.014;2023-12-22T08:14:28;4.20;;;1.50;;
62863;SDS011;48954;59.950;11.014;2023-12-22T08:17:08;2.60;;;0.90;;
62863;SDS011;48954;59.950;11.014;2023-12-22T08:19:51;2.10;;;1.00;;
62863;SDS011;48954;59.950;11.014;2023-12-22T08:22:33;2.90;;;1.30;;
62863;SDS011;48954;59.950;11.014;2023-12-22T08:25:16;2.60;;;1.00;;
62863;SDS011;48954;59.950;11.014;2023-12-22T08:27:57;2.40;;;1.10;;
62863;SDS011;48954;59.950;11.014;2023-12-22T08:30:31;2.60;;;1.00;;
62863;SDS011;48954;59.950;11.014;2023-12-22T08:33:16;5.30;;;2.20;;
62863;SDS011;48954;59.950;11.014;2023-12-22T08:35:58;3.70;;;1.30;;
62863;SDS011;48954;59.950;11.014;2023-12-22T08:38:39;2.90;;;1.20;;
62863;SDS011;48954;59.950;11.014;2023-12-22T08:41:19;2.60;;;1.30;;
62863;SDS011;48954;59.950;11.014;2023-12-22T08:44:01;5.30;;;1.40;;
62863;SDS011;48954;59.950;11.014;2023-12-22T08:47:02;5.40;;;2.00;;
62863;SDS011;48954;59.950;11.014;2023-12-22T08:49:43;4.60;;;2.10;;
62863;SDS011;48954;59.950;11.014;2023-12-22T08:52:23;4.20;;;1.30;;
62863;SDS011;48954;59.950;11.014;2023-12-22T08:55:08;2.70;;;1.30;;
62863;SDS011;48954;59.950;11.014;2023-12-22T08:57:56;2.90;;;1.30;;
62863;SDS011;48954;59.950;11.014;2023-12-22T09:00:38;3.50;;;1.50;;
62863;SDS011;48954;59.950;11.014;2023-12-22T09:03:18;3.40;;;1.60;;
62863;SDS011;48954;59.950;11.014;2023-12-22T09:06:07;2.60;;;1.20;;
62863;SDS011;48954;59.950;11.014;2023-12-22T09:08:37;5.30;;;1.90;;
62863;SDS011;48954;59.950;11.014;2023-12-22T09:11:19;3.80;;;1.30;;
62863;SDS011;48954;59.950;11.014;2023-12-22T09:14:04;3.80;;;1.60;;
62863;SDS011;48954;59.950;11.014;2023-12-22T09:16:45;4.00;;;1.50;;
62863;SDS011;48954;59.950;11.014;2023-12-22T09:19:28;3.80;;;1.60;;
62863;SDS011;48954;59.950;11.014;2023-12-22T09:22:13;3.70;;;1.30;;
62863;SDS011;48954;59.950;11.014;2023-12-22T09:24:54;3.50;;;1.40;;
62863;SDS011;48954;59.950;11.014;2023-12-22T09:27:46;5.40;;;1.10;;
62863;SDS011;48954;59.950;11.014;2023-12-22T09:30:30;2.70;;;1.00;;
62863;SDS011;48954;59.950;11.014;2023-12-22T09:33:10;3.00;;;1.40;;
62863;SDS011;48954;59.950;11.014;2023-12-22T09:35:51;3.60;;;1.20;;
62863;SDS011;48954;59.950;11.014;2023-12-22T09:38:23;3.60;;;1.60;;
62863;SDS011;48954;59.950;11.014;2023-12-22T09:41:04;3.20;;;1.50;;
62863;SDS011;48954;59.950;11.014;2023-12-22T09:43:35;4.40;;;1.40;;
62863;SDS011;48954;59.950;11.014;2023-12-22T09:46:16;3.10;;;1.40;;
62863;SDS011;48954;59.950;11.014;2023-12-22T09:48:59;3.30;;;1.50;;
62863;SDS011;48954;59.950;11.014;2023-12-22T09:51:40;5.70;;;2.00;;
62863;SDS011;48954;59.950;11.014;2023-12-22T09:54:44;4.20;;;1.30;;
62863;SDS011;48954;59.950;11.014;2023-12-22T09:57:26;3.90;;;1.70;;
62863;SDS011;48954;59.950;11.014;2023-12-22T10:00:10;4.10;;;1.70;;
62863;SDS011;48954;59.950;11.014;2023-12-22T10:03:00;2.00;;;0.90;;
62863;SDS011;48954;59.950;11.014;2023-12-22T10:05:51;3.60;;;1.30;;
62863;SDS011;48954;59.950;11.014;2023-12-22T10:08:41;5.50;;;1.00;;
62863;SDS011;48954;59.950;11.014;2023-12-22T10:11:22;2.70;;;1.00;;
62863;SDS011;48954;59.950;11.014;2023-12-22T10:14:05;3.30;;;1.50;;
62863;SDS011;48954;59.950;11.014;2023-12-22T10:16:46;3.90;;;1.60;;
62863;SDS011;48954;59.950;11.014;2023-12-22T10:19:32;3.90;;;1.80;;
62863;SDS011;48954;59.950;11.014;2023-12-22T10:22:34;3.90;;;1.60;;
62863;SDS011;48954;59.950;11.014;2023-12-22T10:25:15;4.50;;;1.50;;
62863;SDS011;48954;59.950;11.014;2023-12-22T10:27:59;4.40;;;1.40;;
62863;SDS011;48954;59.950;11.014;2023-12-22T10:30:41;5.20;;;2.20;;
62863;SDS011;48954;59.950;11.014;2023-12-22T10:33:44;3.10;;;1.70;;
62863;SDS011;48954;59.950;11.014;2023-12-22T10:36:25;3.60;;;1.70;;
62863;SDS011;48954;59.950;11.014;2023-12-22T10:39:07;4.20;;;1.70;;
62863;SDS011;48954;59.950;11.014;2023-12-22T10:41:49;3.70;;;1.60;;
62863;SDS011;48954;59.950;11.014;2023-12-22T10:44:34;4.30;;;1.80;;
62863;SDS011;48954;59.950;11.014;2023-12-22T10:50:13;3.60;;;1.80;;
62863;SDS011;48954;59.950;11.014;2023-12-22T10:53:14;4.50;;;1.90;;
62863;SDS011;48954;59.950;11.014;2023-12-22T10:56:01;4.90;;;2.10;;
62863;SDS011;48954;59.950;11.014;2023-12-22T10:59:03;5.30;;;2.20;;
62863;SDS011;48954;59.950;11.014;2023-12-22T11:01:46;6.10;;;2.40;;
62863;SDS011;48954;59.950;11.014;2023-12-22T11:04:55;4.30;;;1.80;;
62863;SDS011;48954;59.950;11.014;2023-12-22T11:07:47;5.80;;;2.00;;
62863;SDS011;48954;59.950;11.014;2023-12-22T11:10:31;4.00;;;2.00;;
62863;SDS011;48954;59.950;11.014;2023-12-22T11:13:18;5.40;;;1.90;;
62863;SDS011;48954;59.950;11.014;2023-12-22T11:16:20;4.20;;;1.80;;
62863;SDS011;48954;59.950;11.014;2023-12-22T11:19:07;4.90;;;1.80;;
62863;SDS011;48954;59.950;11.014;2023-12-22T11:21:51;5.80;;;2.10;;
62863;SDS011;48954;59.950;11.014;2023-12-22T11:24:36;7.20;;;2.10;;
62863;SDS011;48954;59.950;11.014;2023-12-22T11:27:19;3.10;;;1.40;;
62863;SDS011;48954;59.950;11.014;2023-12-22T11:30:01;3.30;;;1.40;;
62863;SDS011;48954;59.950;11.014;2023-12-22T11:42:18;3.80;;;1.30;;
62863;SDS011;48954;59.950;11.014;2023-12-22T11:45:05;3.20;;;1.30;;
62863;SDS011;48954;59.950;11.014;2023-12-22T11:47:53;3.00;;;1.30;;
62863;SDS011;48954;59.950;11.014;2023-12-22T11:50:54;3.80;;;1.40;;
62863;SDS011;48954;59.950;11.014;2023-12-22T11:53:57;2.40;;;0.60;;
62863;SDS011;48954;59.950;11.014;2023-12-22T12:00:37;3.20;;;1.00;;
62863;SDS011;48954;59.950;11.014;2023-12-22T12:03:54;2.80;;;1.30;;
62863;SDS011;48954;59.950;11.014;2023-12-22T12:21:19;2.90;;;1.20;;
62863;SDS011;48954;59.950;11.014;2023-12-22T12:24:45;1.40;;;0.50;;
62863;SDS011;48954;59.950;11.014;2023-12-22T12:28:01;1.40;;;0.40;;
62863;SDS011;48954;59.950;11.014;2023-12-22T12:31:11;1.20;;;0.50;;
62863;SDS011;48954;59.950;11.014;2023-12-22T12:34:38;1.20;;;0.40;;
62863;SDS011;48954;59.950;11.014;2023-12-22T12:37:33;1.30;;;0.50;;
62863;SDS011;48954;59.950;11.014;2023-12-22T12:40:39;1.50;;;0.70;;
62863;SDS011;48954;59.950;11.014;2023-12-22T12:43:40;0.70;;;0.30;;
62863;SDS011;48954;59.950;11.014;2023-12-22T12:47:16;2.50;;;0.80;;
62863;SDS011;48954;59.950;11.014;2023-12-22T12:50:13;1.00;;;0.50;;
62863;SDS011;48954;59.950;11.014;2023-12-22T12:53:11;2.10;;;0.50;;
62863;SDS011;48954;59.950;11.014;2023-12-22T12:56:20;1.00;;;0.30;;
62863;SDS011;48954;59.950;11.014;2023-12-22T12:59:24;1.60;;;0.40;;
62863;SDS011;48954;59.950;11.014;2023-12-22T13:02:31;0.40;;;0.20;;
62863;SDS011;48954;59.950;11.014;2023-12-22T13:06:08;1.10;;;0.40;;
62863;SDS011;48954;59.950;11.014;2023-12-22T13:12:05;1.40;;;0.30;;
62863;SDS011;48954;59.950;11.014;2023-12-22T13:42:01;1.50;;;0.50;;
62863;SDS011;48954;59.950;11.014;2023-12-22T13:45:26;1.20;;;0.50;;
62863;SDS011;48954;59.950;11.014;2023-12-22T14:07:13;2.00;;;0.70;;
62863;SDS011;48954;59.950;11.014;2023-12-22T14:26:54;1.60;;;0.60;;
62863;SDS011;48954;59.950;11.014;2023-12-22T14:29:58;2.50;;;0.80;;
62863;SDS011;48954;59.950;11.014;2023-12-22T14:44:16;2.70;;;0.90;;
62863;SDS011;48954;59.950;11.014;2023-12-22T14:47:20;2.30;;;1.00;;
62863;SDS011;48954;59.950;11.014;2023-12-22T14:50:40;2.70;;;1.30;;
62863;SDS011;48954;59.950;11.014;2023-12-22T14:54:08;5.70;;;2.00;;
62863;SDS011;48954;59.950;11.014;2023-12-22T14:56:58;5.10;;;1.50;;
62863;SDS011;48954;59.950;11.014;2023-12-22T15:00:03;4.50;;;1.40;;
62863;SDS011;48954;59.950;11.014;2023-12-22T15:03:12;3.40;;;1.40;;
62863;SDS011;48954;59.950;11.014;2023-12-22T15:06:14;4.10;;;1.70;;
62863;SDS011;48954;59.950;11.014;2023-12-22T15:09:21;5.40;;;2.10;;
62863;SDS011;48954;59.950;11.014;2023-12-22T15:12:30;3.20;;;1.20;;
62863;SDS011;48954;59.950;11.014;2023-12-22T15:15:51;5.70;;;1.60;;
62863;SDS011;48954;59.950;11.014;2023-12-22T15:18:36;4.90;;;1.60;;
62863;SDS011;48954;59.950;11.014;2023-12-22T15:21:57;3.60;;;1.20;;
62863;SDS011;48954;59.950;11.014;2023-12-22T15:25:06;4.20;;;1.60;;
62863;SDS011;48954;59.950;11.014;2023-12-22T15:28:10;3.10;;;1.20;;
62863;SDS011;48954;59.950;11.014;2023-12-22T15:31:10;4.20;;;1.60;;
62863;SDS011;48954;59.950;11.014;2023-12-22T15:34:14;3.60;;;1.40;;
62863;SDS011;48954;59.950;11.014;2023-12-22T15:37:03;7.50;;;3.70;;
62863;SDS011;48954;59.950;11.014;2023-12-22T15:43:06;4.80;;;2.10;;
62863;SDS011;48954;59.950;11.014;2023-12-22T15:45:52;16.90;;;5.60;;
62863;SDS011;48954;59.950;11.014;2023-12-22T15:48:55;6.40;;;2.10;;
62863;SDS011;48954;59.950;11.014;2023-12-22T15:51:56;7.50;;;2.70;;
62863;SDS011;48954;59.950;11.014;2023-12-22T15:54:42;10.60;;;4.30;;
62863;SDS011;48954;59.950;11.014;2023-12-22T15:58:03;4.30;;;1.30;;
62863;SDS011;48954;59.950;11.014;2023-12-22T16:00:49;4.60;;;1.60;;
62863;SDS011;48954;59.950;11.014;2023-12-22T16:09:37;4.90;;;2.00;;
62863;SDS011;48954;59.950;11.014;2023-12-22T16:12:18;6.10;;;2.80;;
62863;SDS011;48954;59.950;11.014;2023-12-22T16:15:01;5.30;;;2.50;;
62863;SDS011;48954;59.950;11.014;2023-12-22T16:18:02;5.20;;;2.20;;
62863;SDS011;48954;59.950;11.014;2023-12-22T16:21:24;6.70;;;2.30;;
62863;SDS011;48954;59.950;11.014;2023-12-22T16:24:07;4.40;;;1.90;;
62863;SDS011;48954;59.950;11.014;2023-12-22T16:26:51;6.20;;;2.30;;
62863;SDS011;48954;59.950;11.014;2023-12-22T16:29:52;4.20;;;1.60;;
62863;SDS011;48954;59.950;11.014;2023-12-22T16:32:36;5.10;;;1.70;;
62863;SDS011;48954;59.950;11.014;2023-12-22T16:35:20;3.00;;;1.30;;
62863;SDS011;48954;59.950;11.014;2023-12-22T16:38:37;4.10;;;1.20;;
62863;SDS011;48954;59.950;11.014;2023-12-22T16:42:02;4.90;;;1.60;;
62863;SDS011;48954;59.950;11.014;2023-12-22T16:45:20;3.10;;;1.30;;
62863;SDS011;48954;59.950;11.014;2023-12-22T16:48:22;6.60;;;1.60;;
62863;SDS011;48954;59.950;11.014;2023-12-22T16:51:06;3.00;;;1.30;;
62863;SDS011;48954;59.950;11.014;2023-12-22T16:53:47;3.80;;;1.50;;
62863;SDS011;48954;59.950;11.014;2023-12-22T16:57:09;4.30;;;1.80;;
62863;SDS011;48954;59.950;11.014;2023-12-22T17:00:15;4.70;;;1.40;;
62863;SDS011;48954;59.950;11.014;2023-12-22T17:03:15;4.60;;;1.50;;
62863;SDS011;48954;59.950;11.014;2023-12-22T17:06:30;4.00;;;1.20;;
62863;SDS011;48954;59.950;11.014;2023-12-22T17:21:32;5.20;;;1.40;;
62863;SDS011;48954;59.950;11.014;2023-12-22T17:24:14;4.70;;;1.30;;
62863;SDS011;48954;59.950;11.014;2023-12-22T17:26:54;2.60;;;0.90;;
62863;SDS011;48954;59.950;11.014;2023-12-22T17:30:05;4.50;;;1.70;;
62863;SDS011;48954;59.950;11.014;2023-12-22T17:33:09;4.10;;;1.70;;
62863;SDS011;48954;59.950;11.014;2023-12-22T17:36:12;4.40;;;1.90;;
62863;SDS011;48954;59.950;11.014;2023-12-22T17:38:55;3.70;;;1.60;;
62863;SDS011;48954;59.950;11.014;2023-12-22T17:41:43;5.30;;;1.90;;
62863;SDS011;48954;59.950;11.014;2023-12-22T17:44:28;2.40;;;1.10;;
62863;SDS011;48954;59.950;11.014;2023-12-22T17:58:44;2.80;;;1.30;;
62863;SDS011;48954;59.950;11.014;2023-12-22T18:04:33;2.50;;;1.30;;
62863;SDS011;48954;59.950;11.014;2023-12-22T18:13:01;3.70;;;1.70;;
62863;SDS011;48954;59.950;11.014;2023-12-22T18:16:41;3.10;;;1.30;;
62863;SDS011;48954;59.950;11.014;2023-12-22T18:19:25;3.90;;;1.50;;
62863;SDS011;48954;59.950;11.014;2023-12-22T18:22:25;4.70;;;1.80;;
62863;SDS011;48954;59.950;11.014;2023-12-22T18:25:24;4.40;;;1.60;;
62863;SDS011;48954;59.950;11.014;2023-12-22T18:28:09;4.50;;;1.60;;
62863;SDS011;48954;59.950;11.014;2023-12-22T18:30:53;9.10;;;2.20;;
62863;SDS011;48954;59.950;11.014;2023-12-22T18:33:34;5.40;;;2.60;;
62863;SDS011;48954;59.950;11.014;2023-12-22T18:36:24;6.30;;;2.60;;
62863;SDS011;48954;59.950;11.014;2023-12-22T18:39:07;4.10;;;1.60;;
62863;SDS011;48954;59.950;11.014;2023-12-22T18:42:29;7.60;;;1.80;;
62863;SDS011;48954;59.950;11.014;2023-12-22T18:45:50;7.50;;;3.30;;
62863;SDS011;48954;59.950;11.014;2023-12-22T18:48:33;5.80;;;2.10;;
62863;SDS011;48954;59.950;11.014;2023-12-22T18:51:14;4.70;;;1.40;;
62863;SDS011;48954;59.950;11.014;2023-12-22T18:54:15;4.40;;;1.40;;
62863;SDS011;48954;59.950;11.014;2023-12-22T18:57:42;2.80;;;1.40;;
62863;SDS011;48954;59.950;11.014;2023-12-22T19:03:22;6.80;;;2.50;;
62863;SDS011;48954;59.950;11.014;2023-12-22T19:06:27;6.80;;;2.50;;
62863;SDS011;48954;59.950;11.014;2023-12-22T19:09:15;8.70;;;3.50;;